createdAt,value
2023-02-04T00:00:29.595Z,8.48
2023-02-04T00:02:59.540Z,8.50
2023-02-04T00:05:27.738Z,8.38
2023-02-04T00:07:55.760Z,8.36
2023-02-04T00:10:23.741Z,8.22
2023-02-04T00:12:51.679Z,8.48
2023-02-04T00:15:19.798Z,8.18
2023-02-04T00:17:47.812Z,8.30
2023-02-04T00:20:18.733Z,8.21
2023-02-04T00:22:46.855Z,8.35
2023-02-04T00:25:14.909Z,8.34
2023-02-04T00:27:43.031Z,8.46
2023-02-04T00:30:12.933Z,8.67
2023-02-04T00:32:42.129Z,8.49
2023-02-04T00:35:10.181Z,8.29
2023-02-04T00:37:39.607Z,8.87
2023-02-04T00:40:08.673Z,8.67
2023-02-04T00:42:36.571Z,8.55
2023-02-04T00:45:04.824Z,8.35
2023-02-04T00:47:32.866Z,8.14
2023-02-04T00:50:01.006Z,8.11
2023-02-04T00:52:29.172Z,8.56
2023-02-04T00:54:58.733Z,8.61
2023-02-04T00:57:26.742Z,8.79
2023-02-04T00:59:54.810Z,8.68
2023-02-04T01:02:23.035Z,8.28
2023-02-04T01:04:51.247Z,8.60
2023-02-04T01:07:19.781Z,8.66
2023-02-04T01:09:47.928Z,8.50
2023-02-04T01:12:17.231Z,8.68
2023-02-04T01:14:45.313Z,8.37
2023-02-04T01:17:13.279Z,8.26
2023-02-04T01:19:41.260Z,8.36
2023-02-04T01:22:09.317Z,8.20
2023-02-04T01:24:37.332Z,8.35
2023-02-04T01:27:25.442Z,8.34
2023-02-04T01:29:53.475Z,8.00
2023-02-04T01:32:21.462Z,8.23
2023-02-04T01:34:49.603Z,8.38
2023-02-04T01:37:19.010Z,8.35
2023-02-04T01:39:47.111Z,8.25
2023-02-04T01:42:15.205Z,8.38
2023-02-04T01:44:44.898Z,8.27
2023-02-04T01:47:13.272Z,8.42
2023-02-04T01:49:41.537Z,8.18
2023-02-04T01:52:11.537Z,8.35
2023-02-04T01:54:39.725Z,8.31
2023-02-04T01:57:14.634Z,8.11
2023-02-04T01:59:44.861Z,8.00
2023-02-04T02:02:39.119Z,8.11
2023-02-04T02:05:08.321Z,8.00
2023-02-04T02:07:36.425Z,8.01
2023-02-04T02:10:06.227Z,8.26
2023-02-04T02:12:34.245Z,8.12
2023-02-04T02:15:04.038Z,8.43
2023-02-04T02:17:33.487Z,8.62
2023-02-04T02:20:01.533Z,8.28
2023-02-04T02:22:34.508Z,8.58
2023-02-04T02:25:10.275Z,8.06
2023-02-04T02:27:38.344Z,7.88
2023-02-04T02:30:07.645Z,8.12
2023-02-04T02:32:37.377Z,7.98
2023-02-04T02:35:06.571Z,8.17
2023-02-04T02:37:34.637Z,8.25
2023-02-04T02:40:04.823Z,8.02
2023-02-04T02:42:33.912Z,7.92
2023-02-04T02:45:08.224Z,7.86
2023-02-04T02:47:36.254Z,8.09
2023-02-04T02:50:04.337Z,8.03
2023-02-04T02:52:32.328Z,8.17
2023-02-04T02:55:00.404Z,8.10
2023-02-04T02:57:30.005Z,7.96
2023-02-04T02:59:57.945Z,7.93
2023-02-04T03:02:26.516Z,7.87
2023-02-04T03:05:00.871Z,7.81
2023-02-04T03:07:31.263Z,7.69
2023-02-04T03:09:59.664Z,7.74
2023-02-04T03:12:29.541Z,8.07
2023-02-04T03:14:57.671Z,8.43
2023-02-04T03:17:25.819Z,8.33
2023-02-04T03:19:53.840Z,8.35
2023-02-04T03:22:21.965Z,8.05
2023-02-04T03:24:51.398Z,8.00
2023-02-04T03:27:20.788Z,7.92
2023-02-04T03:29:50.215Z,7.76
2023-02-04T03:32:18.683Z,7.75
2023-02-04T03:34:46.739Z,7.80
2023-02-04T03:37:14.688Z,8.12
2023-02-04T03:39:42.678Z,8.15
2023-02-04T03:42:10.574Z,7.86
2023-02-04T03:44:38.732Z,7.74
2023-02-04T03:47:08.341Z,7.68
2023-02-04T03:49:36.500Z,7.85
2023-02-04T03:52:05.219Z,8.12
2023-02-04T03:54:33.248Z,7.78
2023-02-04T03:57:01.232Z,7.97
2023-02-04T03:59:29.506Z,8.03
2023-02-04T04:01:57.632Z,7.88
2023-02-04T04:04:27.398Z,7.77
2023-02-04T04:06:55.532Z,7.93
2023-02-04T04:09:23.643Z,7.70
2023-02-04T04:11:51.715Z,7.70
2023-02-04T04:14:19.674Z,7.66
2023-02-04T04:16:47.652Z,7.65
2023-02-04T04:19:15.646Z,7.55
2023-02-04T04:21:45.093Z,7.75
2023-02-04T04:24:13.117Z,7.63
2023-02-04T04:26:41.155Z,7.57
2023-02-04T04:29:09.261Z,7.51
2023-02-04T04:31:37.324Z,7.52
2023-02-04T04:34:05.406Z,7.44
2023-02-04T04:36:33.461Z,7.40
2023-02-04T04:39:03.074Z,7.41
2023-02-04T04:41:31.034Z,7.54
2023-02-04T04:43:59.327Z,7.91
2023-02-04T04:46:27.305Z,7.85
2023-02-04T04:48:55.355Z,7.56
2023-02-04T04:51:23.417Z,7.43
2023-02-04T04:53:52.091Z,7.41
2023-02-04T04:56:21.429Z,7.63
2023-02-04T04:58:49.457Z,7.59
2023-02-04T05:01:17.582Z,7.40
2023-02-04T05:03:45.547Z,7.45
2023-02-04T05:06:13.505Z,7.32
2023-02-04T05:08:42.674Z,7.38
2023-02-04T05:11:11.694Z,7.36
2023-02-04T05:13:41.329Z,7.23
2023-02-04T05:16:12.201Z,7.30
2023-02-04T05:18:40.913Z,7.26
2023-02-04T05:21:09.163Z,7.33
2023-02-04T05:23:37.100Z,7.37
2023-02-04T05:26:05.174Z,7.35
2023-02-04T05:28:33.024Z,7.35
2023-02-04T05:31:02.533Z,7.26
2023-02-04T05:33:30.503Z,7.29
2023-02-04T05:35:58.514Z,7.51
2023-02-04T05:38:26.387Z,7.65
2023-02-04T05:40:54.312Z,7.62
2023-02-04T05:43:22.251Z,7.53
2023-02-04T05:45:50.137Z,7.44
2023-02-04T05:48:19.657Z,7.36
2023-02-04T05:50:47.560Z,7.77
2023-02-04T05:53:15.511Z,7.64
2023-02-04T05:55:43.543Z,7.48
2023-02-04T05:58:11.515Z,7.49
2023-02-04T06:00:39.360Z,7.31
2023-02-04T06:03:07.558Z,7.36
2023-02-04T06:05:37.121Z,7.42
2023-02-04T06:08:05.466Z,7.27
2023-02-04T06:10:33.833Z,7.28
2023-02-04T06:13:01.835Z,7.48
2023-02-04T06:15:30.189Z,7.53
2023-02-04T06:17:58.560Z,7.45
2023-02-04T06:20:26.580Z,7.46
2023-02-04T06:22:55.972Z,7.31
2023-02-04T06:25:24.468Z,7.23
2023-02-04T06:27:52.636Z,7.21
2023-02-04T06:30:20.953Z,7.17
2023-02-04T06:32:48.933Z,7.15
2023-02-04T06:35:16.869Z,7.10
2023-02-04T06:37:45.187Z,7.17
2023-02-04T06:40:14.947Z,7.18
2023-02-04T06:42:42.906Z,7.08
2023-02-04T06:45:11.333Z,7.14
2023-02-04T06:47:39.284Z,7.21
2023-02-04T06:50:07.790Z,7.23
2023-02-04T06:52:35.792Z,7.26
2023-02-04T06:55:03.879Z,7.44
2023-02-04T06:57:33.202Z,7.38
2023-02-04T07:00:01.118Z,7.42
2023-02-04T07:02:29.125Z,7.50
2023-02-04T07:04:57.268Z,7.32
2023-02-04T07:07:25.258Z,7.42
2023-02-04T07:09:53.309Z,7.42
2023-02-04T07:12:21.292Z,7.38
2023-02-04T07:14:50.916Z,7.35
2023-02-04T07:17:18.823Z,7.23
2023-02-04T07:19:46.847Z,7.33
2023-02-04T07:22:14.743Z,7.38
2023-02-04T07:24:42.739Z,7.39
2023-02-04T07:27:10.738Z,7.36
2023-02-04T07:29:38.778Z,7.33
2023-02-04T07:32:08.343Z,7.27
2023-02-04T07:34:36.437Z,7.27
2023-02-04T07:37:04.472Z,7.43
2023-02-04T07:39:32.552Z,7.43
2023-02-04T07:42:00.507Z,7.28
2023-02-04T07:44:35.344Z,7.31
2023-02-04T07:47:03.412Z,7.31
2023-02-04T07:49:32.891Z,7.31
2023-02-04T07:52:00.807Z,7.28
2023-02-04T07:54:28.826Z,7.39
2023-02-04T07:56:56.756Z,7.41
2023-02-04T07:59:24.679Z,7.39
2023-02-04T08:01:52.751Z,7.32
2023-02-04T08:04:20.783Z,7.45
2023-02-04T08:06:50.179Z,7.50
2023-02-04T08:09:18.180Z,7.50
2023-02-04T08:11:46.427Z,7.46
2023-02-04T08:14:14.607Z,7.55
2023-02-04T08:16:42.551Z,7.68
2023-02-04T08:19:10.483Z,7.77
2023-02-04T08:21:38.415Z,7.64
2023-02-04T08:24:07.992Z,7.65
2023-02-04T08:26:36.019Z,7.64
2023-02-04T08:29:03.912Z,7.53
2023-02-04T08:31:31.880Z,7.52
2023-02-04T08:33:59.942Z,7.49
2023-02-04T08:36:27.850Z,7.50
2023-02-04T08:38:56.397Z,7.57
2023-02-04T08:41:26.342Z,7.55
2023-02-04T08:43:54.459Z,7.53
2023-02-04T08:46:22.385Z,7.57
2023-02-04T08:48:52.916Z,7.66
2023-02-04T08:51:21.306Z,7.77
2023-02-04T08:53:51.776Z,7.72
2023-02-04T08:56:20.710Z,8.01
2023-02-04T08:58:51.370Z,7.81
2023-02-04T09:01:20.065Z,7.74
2023-02-04T09:03:48.820Z,7.74
2023-02-04T09:06:17.102Z,7.74
2023-02-04T09:08:45.423Z,7.77
2023-02-04T09:11:15.041Z,7.87
2023-02-04T09:13:43.413Z,7.85
2023-02-04T09:16:14.967Z,7.99
2023-02-04T09:18:46.517Z,8.01
2023-02-04T09:21:14.800Z,8.12
2023-02-04T09:23:43.244Z,8.28
2023-02-04T09:26:11.197Z,8.73
2023-02-04T09:28:39.633Z,8.30
2023-02-04T09:31:07.653Z,8.19
2023-02-04T09:33:37.366Z,8.48
2023-02-04T09:36:06.224Z,8.44
2023-02-04T09:38:34.294Z,8.36
2023-02-04T09:41:04.503Z,8.25
2023-02-04T09:43:35.718Z,8.15
2023-02-04T09:46:04.519Z,8.49
2023-02-04T09:48:32.506Z,8.37
2023-02-04T09:51:09.376Z,8.27
2023-02-04T09:53:38.036Z,8.28
2023-02-04T09:56:06.936Z,8.32
2023-02-04T09:58:36.422Z,8.34
2023-02-04T10:01:13.975Z,8.26
2023-02-04T10:03:46.750Z,8.39
2023-02-04T10:06:18.072Z,8.44
2023-02-04T10:08:47.882Z,8.55
2023-02-04T10:11:19.657Z,8.47
2023-02-04T10:13:50.489Z,8.67
2023-02-04T10:16:21.499Z,8.64
2023-02-04T10:18:49.644Z,8.68
2023-02-04T10:21:21.998Z,8.76
2023-02-04T10:23:52.966Z,8.67
2023-02-04T10:26:22.701Z,8.65
2023-02-04T10:28:50.600Z,8.71
2023-02-04T10:31:34.277Z,8.64
2023-02-04T10:34:07.500Z,8.74
2023-02-04T10:36:37.222Z,8.71
2023-02-04T10:39:08.379Z,8.82
2023-02-04T10:41:38.765Z,8.76
2023-02-04T10:44:08.311Z,8.91
2023-02-04T10:46:36.201Z,8.51
2023-02-04T10:49:05.888Z,8.69
2023-02-04T10:51:34.586Z,8.92
2023-02-04T10:54:17.896Z,8.79
2023-02-04T10:56:45.846Z,8.81
2023-02-04T10:59:26.715Z,8.78
2023-02-04T11:01:56.066Z,8.77
2023-02-04T11:04:24.357Z,8.79
2023-02-04T11:06:52.842Z,8.65
2023-02-04T11:09:22.704Z,8.87
2023-02-04T11:11:52.270Z,8.85
2023-02-04T11:14:28.223Z,8.68
2023-02-04T11:17:00.758Z,8.70
2023-02-04T11:19:35.745Z,8.81
2023-02-04T11:22:23.828Z,8.95
2023-02-04T11:24:53.397Z,8.94
2023-02-04T11:27:24.660Z,8.91
2023-02-04T11:29:53.618Z,9.19
2023-02-04T11:32:35.149Z,9.22
2023-02-04T11:35:23.996Z,9.29
2023-02-04T11:37:51.925Z,9.16
2023-02-04T11:40:29.104Z,9.17
2023-02-04T11:43:02.824Z,9.67
2023-02-04T11:45:34.369Z,9.32
2023-02-04T11:48:05.609Z,9.33
2023-02-04T11:50:35.499Z,9.83
2023-02-04T11:53:03.891Z,10.03
2023-02-04T11:55:37.542Z,9.51
2023-02-04T11:58:07.381Z,9.43
2023-02-04T12:00:35.366Z,9.60
2023-02-04T12:03:20.889Z,9.38
2023-02-04T12:05:49.702Z,9.46
2023-02-04T12:08:28.732Z,9.39
2023-02-04T12:11:08.478Z,9.37
2023-02-04T12:13:49.515Z,9.48
2023-02-04T12:16:17.818Z,9.46
2023-02-04T12:18:46.299Z,9.53
2023-02-04T12:21:15.101Z,9.52
2023-02-04T12:23:43.529Z,9.48
2023-02-04T12:26:13.134Z,9.72
2023-02-04T12:28:41.214Z,9.62
2023-02-04T12:31:09.434Z,9.75
2023-02-04T12:33:37.568Z,9.82
2023-02-04T12:36:06.182Z,10.03
2023-02-04T12:38:34.212Z,10.10
2023-02-04T12:41:02.204Z,10.13
2023-02-04T12:43:31.633Z,9.86
2023-02-04T12:45:59.653Z,9.84
2023-02-04T12:48:27.606Z,9.80
2023-02-04T12:50:55.614Z,9.80
2023-02-04T12:53:23.718Z,9.60
2023-02-04T12:55:51.646Z,9.74
2023-02-04T12:58:19.586Z,9.90
2023-02-04T13:00:48.980Z,10.09
2023-02-04T13:03:17.681Z,10.24
2023-02-04T13:05:45.686Z,10.51
2023-02-04T13:08:13.579Z,10.80
2023-02-04T13:10:41.579Z,10.54
2023-02-04T13:13:09.569Z,10.37
2023-02-04T13:15:37.641Z,10.52
2023-02-04T13:18:08.278Z,10.63
2023-02-04T13:20:36.291Z,10.59
2023-02-04T13:23:04.400Z,10.68
2023-02-04T13:25:32.762Z,10.63
2023-02-04T13:28:00.939Z,10.35
2023-02-04T13:30:28.977Z,10.35
2023-02-04T13:32:56.994Z,10.55
2023-02-04T13:35:26.540Z,10.55
2023-02-04T13:37:56.452Z,10.89
2023-02-04T13:40:24.515Z,10.83
2023-02-04T13:42:52.501Z,10.63
2023-02-04T13:45:20.776Z,10.55
2023-02-04T13:47:49.033Z,10.61
2023-02-04T13:50:17.650Z,10.77
2023-02-04T13:52:47.029Z,10.68
2023-02-04T13:55:15.324Z,10.84
2023-02-04T13:57:43.511Z,10.87
2023-02-04T14:00:12.971Z,10.62
2023-02-04T14:02:41.124Z,10.49
2023-02-04T14:05:09.234Z,10.41
2023-02-04T14:07:37.093Z,10.29
2023-02-04T14:10:07.454Z,10.13
2023-02-04T14:12:35.605Z,10.32
2023-02-04T14:15:03.580Z,10.39
2023-02-04T14:17:31.616Z,10.53
2023-02-04T14:19:59.702Z,10.35
2023-02-04T14:22:27.671Z,9.97
2023-02-04T14:24:55.474Z,9.91
2023-02-04T14:27:24.743Z,9.79
2023-02-04T14:29:52.738Z,9.78
2023-02-04T14:32:21.931Z,10.09
2023-02-04T14:34:50.044Z,9.80
2023-02-04T14:37:18.115Z,9.73
2023-02-04T14:39:46.044Z,9.70
2023-02-04T14:42:14.044Z,9.70
2023-02-04T14:44:43.366Z,9.81
2023-02-04T14:47:11.440Z,9.77
2023-02-04T14:49:39.700Z,9.75
2023-02-04T14:52:09.668Z,9.71
2023-02-04T14:54:38.616Z,9.66
2023-02-04T14:57:06.736Z,9.72
2023-02-04T14:59:34.943Z,9.88
2023-02-04T15:02:04.333Z,9.80
2023-02-04T15:04:32.604Z,9.76
2023-02-04T15:07:00.691Z,9.65
2023-02-04T15:09:28.686Z,9.57
2023-02-04T15:11:56.855Z,9.67
2023-02-04T15:14:24.813Z,9.75
2023-02-04T15:16:52.931Z,9.73
2023-02-04T15:19:23.735Z,9.73
2023-02-04T15:21:52.109Z,9.65
2023-02-04T15:24:20.022Z,9.68
2023-02-04T15:26:47.999Z,9.56
2023-02-04T15:29:15.838Z,9.60
2023-02-04T15:31:43.980Z,9.66
2023-02-04T15:34:12.085Z,9.76
2023-02-04T15:36:41.564Z,9.67
2023-02-04T15:39:09.412Z,9.58
2023-02-04T15:41:37.424Z,9.59
2023-02-04T15:44:06.104Z,9.56
2023-02-04T15:46:34.826Z,9.50
2023-02-04T15:49:03.580Z,9.31
2023-02-04T15:51:31.714Z,9.41
2023-02-04T15:54:01.290Z,9.33
2023-02-04T15:56:29.311Z,9.29
2023-02-04T15:58:57.268Z,9.34
2023-02-04T16:01:25.331Z,9.29
2023-02-04T16:03:56.431Z,9.23
2023-02-04T16:06:24.458Z,9.14
2023-02-04T16:08:52.525Z,9.08
2023-02-04T16:11:21.859Z,9.01
2023-02-04T16:13:50.957Z,9.06
2023-02-04T16:16:19.537Z,8.99
2023-02-04T16:18:47.442Z,8.90
2023-02-04T16:21:15.251Z,8.87
2023-02-04T16:23:43.620Z,8.80
2023-02-04T16:26:12.021Z,8.74
2023-02-04T16:28:41.376Z,8.70
2023-02-04T16:31:10.131Z,8.65
2023-02-04T16:33:38.331Z,8.56
2023-02-04T16:36:11.702Z,8.45
2023-02-04T16:38:40.211Z,8.39
2023-02-04T16:41:08.174Z,8.34
2023-02-04T16:43:36.175Z,8.30
2023-02-04T16:46:05.924Z,8.29
2023-02-04T16:48:34.060Z,8.25
2023-02-04T16:51:01.960Z,8.25
2023-02-04T16:53:29.937Z,8.24
2023-02-04T16:55:57.888Z,8.13
2023-02-04T16:58:26.244Z,8.22
2023-02-04T17:00:54.659Z,8.25
2023-02-04T17:03:24.034Z,8.22
2023-02-04T17:05:52.010Z,8.22
2023-02-04T17:08:20.172Z,8.19
2023-02-04T17:11:05.428Z,8.20
2023-02-04T17:13:33.696Z,8.32
2023-02-04T17:16:02.164Z,8.09
2023-02-04T17:18:32.877Z,8.17
2023-02-04T17:21:01.372Z,8.23
2023-02-04T17:23:29.921Z,8.21
2023-02-04T17:25:57.974Z,8.21
2023-02-04T17:28:26.238Z,8.21
2023-02-04T17:30:54.287Z,8.19
2023-02-04T17:33:22.323Z,8.13
2023-02-04T17:35:51.801Z,8.07
2023-02-04T17:38:19.879Z,8.11
2023-02-04T17:40:47.831Z,8.16
2023-02-04T17:43:15.664Z,8.01
2023-02-04T17:45:43.696Z,8.12
2023-02-04T17:48:11.687Z,8.07
2023-02-04T17:50:40.233Z,7.92
2023-02-04T17:53:11.444Z,8.02
2023-02-04T17:55:40.317Z,7.88
2023-02-04T17:58:16.366Z,7.97
2023-02-04T18:00:46.565Z,7.91
2023-02-04T18:03:16.173Z,7.98
2023-02-04T18:05:48.169Z,7.94
2023-02-04T18:08:21.029Z,7.85
2023-02-04T18:10:51.148Z,7.97
2023-02-04T18:13:21.404Z,7.94
2023-02-04T18:15:52.083Z,7.87
2023-02-04T18:18:23.296Z,8.01
2023-02-04T18:20:59.356Z,8.04
2023-02-04T18:23:29.800Z,7.89
2023-02-04T18:26:06.231Z,7.95
2023-02-04T18:28:35.302Z,7.92
2023-02-04T18:31:04.716Z,7.83
2023-02-04T18:33:33.785Z,7.90
2023-02-04T18:36:02.809Z,7.86
2023-02-04T18:38:39.224Z,7.87
2023-02-04T18:41:27.624Z,7.88
2023-02-04T18:44:02.536Z,7.79
2023-02-04T18:46:33.883Z,7.76
2023-02-04T18:49:24.021Z,7.76
2023-02-04T18:51:52.615Z,7.86
2023-02-04T18:54:40.317Z,7.73
2023-02-04T18:57:30.093Z,7.70
2023-02-04T19:00:27.905Z,7.69
2023-02-04T19:02:58.747Z,7.66
2023-02-04T19:05:31.486Z,7.59
2023-02-04T19:08:24.524Z,7.65
2023-02-04T19:10:55.590Z,7.63
2023-02-04T19:13:27.464Z,7.57
2023-02-04T19:16:02.369Z,7.56
2023-02-04T19:18:37.524Z,7.55
2023-02-04T19:21:25.916Z,7.47
2023-02-04T19:23:59.975Z,7.50
2023-02-04T19:26:35.292Z,7.47
2023-02-04T19:29:40.338Z,7.43
2023-02-04T19:32:27.520Z,7.53
2023-02-04T19:34:58.712Z,7.41
2023-02-04T19:37:28.460Z,7.44
2023-02-04T19:39:57.171Z,7.35
2023-02-04T19:42:36.644Z,7.36
2023-02-04T19:45:19.267Z,7.35
2023-02-04T19:47:47.183Z,7.40
2023-02-04T19:50:23.801Z,7.35
2023-02-04T19:52:55.684Z,7.38
2023-02-04T19:55:32.988Z,7.32
2023-02-04T19:58:14.422Z,7.34
2023-02-04T20:01:01.040Z,7.19
2023-02-04T20:03:35.891Z,7.31
2023-02-04T20:06:34.610Z,7.17
2023-02-04T20:09:05.335Z,7.19
2023-02-04T20:11:52.126Z,7.23
2023-02-04T20:14:37.876Z,7.20
2023-02-04T20:17:27.433Z,7.23
2023-02-04T20:19:56.148Z,7.23
2023-02-04T20:22:45.652Z,7.15
2023-02-04T20:25:40.005Z,7.22
2023-02-04T20:28:39.945Z,7.29
2023-02-04T20:31:28.532Z,7.28
2023-02-04T20:33:59.548Z,7.16
2023-02-04T20:36:36.222Z,7.11
2023-02-04T20:39:33.363Z,7.19
2023-02-04T20:42:28.824Z,7.20
2023-02-04T20:45:00.682Z,7.12
2023-02-04T20:47:35.729Z,7.05
2023-02-04T20:50:23.752Z,6.99
2023-02-04T20:53:06.775Z,6.97
2023-02-04T20:55:36.156Z,7.01
2023-02-04T20:58:16.261Z,7.02
2023-02-04T21:00:46.102Z,6.91
2023-02-04T21:03:25.059Z,6.89
2023-02-04T21:05:54.489Z,6.81
2023-02-04T21:08:33.956Z,6.74
2023-02-04T21:11:02.554Z,6.65
2023-02-04T21:13:30.498Z,6.77
2023-02-04T21:15:59.008Z,6.74
2023-02-04T21:18:29.482Z,6.72
2023-02-04T21:20:57.718Z,6.72
2023-02-04T21:23:25.632Z,6.69
2023-02-04T21:25:53.718Z,6.69
2023-02-04T21:28:21.664Z,6.73
2023-02-04T21:30:50.014Z,6.81
2023-02-04T21:33:18.823Z,6.78
2023-02-04T21:35:48.222Z,6.57
2023-02-04T21:38:16.156Z,6.70
2023-02-04T21:40:44.680Z,6.68
2023-02-04T21:43:12.857Z,6.70
2023-02-04T21:45:40.877Z,6.76
2023-02-04T21:48:09.077Z,6.85
2023-02-04T21:50:38.469Z,6.90
2023-02-04T21:53:08.729Z,6.93
2023-02-04T21:55:37.391Z,6.66
2023-02-04T21:58:05.842Z,6.66
2023-02-04T22:00:34.076Z,6.71
2023-02-04T22:03:02.400Z,6.82
2023-02-04T22:05:30.738Z,6.81
2023-02-04T22:07:59.942Z,6.74
2023-02-04T22:10:29.519Z,6.67
2023-02-04T22:12:57.656Z,6.65
2023-02-04T22:15:25.706Z,6.61
2023-02-04T22:17:54.765Z,6.63
2023-02-04T22:20:23.983Z,6.63
2023-02-04T22:22:52.435Z,6.64
2023-02-04T22:25:21.872Z,6.69
2023-02-04T22:27:51.603Z,6.74
2023-02-04T22:30:20.316Z,6.62
2023-02-04T22:32:48.466Z,6.64
2023-02-04T22:35:16.983Z,6.71
2023-02-04T22:37:45.029Z,6.69
2023-02-04T22:40:14.074Z,6.67
2023-02-04T22:42:42.095Z,6.69
2023-02-04T22:45:11.649Z,6.64
2023-02-04T22:47:40.003Z,6.65
2023-02-04T22:50:08.892Z,6.66
2023-02-04T22:52:43.759Z,6.77
2023-02-04T22:55:11.946Z,6.82
2023-02-04T22:57:39.936Z,6.80
2023-02-04T23:00:12.064Z,6.74
2023-02-04T23:02:40.025Z,6.61
2023-02-04T23:05:08.271Z,6.73
2023-02-04T23:07:36.457Z,6.76
2023-02-04T23:10:04.494Z,6.67
2023-02-04T23:12:32.396Z,6.69
2023-02-04T23:15:00.414Z,6.68
2023-02-04T23:17:29.788Z,6.71
2023-02-04T23:19:57.720Z,6.61
2023-02-04T23:22:25.850Z,6.76
2023-02-04T23:24:54.184Z,6.67
2023-02-04T23:27:22.257Z,6.76
2023-02-04T23:29:50.230Z,6.82
2023-02-04T23:32:18.103Z,6.78
2023-02-04T23:34:47.448Z,6.73
2023-02-04T23:37:15.550Z,6.77
2023-02-04T23:39:43.400Z,6.74
2023-02-04T23:42:18.078Z,6.79
2023-02-04T23:44:46.063Z,6.82
2023-02-04T23:47:14.053Z,6.71
2023-02-04T23:49:42.221Z,6.82
2023-02-04T23:52:11.552Z,6.90
2023-02-04T23:54:40.020Z,6.81
2023-02-04T23:57:07.926Z,6.82
2023-02-04T23:59:36.304Z,6.86
